sensor_id;sensor_type;location;lat;lon;timestamp;P1;durP1;ratioP1;P2;durP2;ratioP2
40781;SDS011;26493;51.938;7.626;2022-10-16T00:01:15;23.23;;;15.95;;
40781;SDS011;26493;51.938;7.626;2022-10-16T00:03:42;25.15;;;15.05;;
40781;SDS011;26493;51.938;7.626;2022-10-16T00:06:10;20.77;;;15.35;;
40781;SDS011;26493;51.938;7.626;2022-10-16T00:08:37;23.83;;;15.43;;
40781;SDS011;26493;51.938;7.626;2022-10-16T00:11:07;24.15;;;16.00;;
40781;SDS011;26493;51.938;7.626;2022-10-16T00:13:33;25.58;;;15.13;;
40781;SDS011;26493;51.938;7.626;2022-10-16T00:16:00;22.27;;;15.85;;
40781;SDS011;26493;51.938;7.626;2022-10-16T00:18:27;22.80;;;15.15;;
40781;SDS011;26493;51.938;7.626;2022-10-16T00:20:53;24.70;;;16.60;;
40781;SDS011;26493;51.938;7.626;2022-10-16T00:23:19;23.42;;;15.13;;
40781;SDS011;26493;51.938;7.626;2022-10-16T00:25:53;24.25;;;15.73;;
40781;SDS011;26493;51.938;7.626;2022-10-16T00:28:20;22.33;;;14.63;;
40781;SDS011;26493;51.938;7.626;2022-10-16T00:30:46;20.63;;;15.15;;
40781;SDS011;26493;51.938;7.626;2022-10-16T00:33:12;23.25;;;15.32;;
40781;SDS011;26493;51.938;7.626;2022-10-16T00:35:38;22.55;;;15.45;;
40781;SDS011;26493;51.938;7.626;2022-10-16T00:38:04;22.67;;;16.67;;
40781;SDS011;26493;51.938;7.626;2022-10-16T00:40:30;23.33;;;15.32;;
40781;SDS011;26493;51.938;7.626;2022-10-16T00:42:56;22.55;;;15.65;;
40781;SDS011;26493;51.938;7.626;2022-10-16T00:45:22;22.17;;;15.68;;
40781;SDS011;26493;51.938;7.626;2022-10-16T00:47:49;23.67;;;16.23;;
40781;SDS011;26493;51.938;7.626;2022-10-16T00:50:22;25.67;;;16.90;;
40781;SDS011;26493;51.938;7.626;2022-10-16T00:52:50;23.67;;;17.35;;
40781;SDS011;26493;51.938;7.626;2022-10-16T00:55:17;26.00;;;16.73;;
40781;SDS011;26493;51.938;7.626;2022-10-16T00:57:43;23.65;;;17.33;;
40781;SDS011;26493;51.938;7.626;2022-10-16T01:00:14;23.25;;;16.77;;
40781;SDS011;26493;51.938;7.626;2022-10-16T01:02:40;23.63;;;16.35;;
40781;SDS011;26493;51.938;7.626;2022-10-16T01:05:06;23.52;;;18.10;;
40781;SDS011;26493;51.938;7.626;2022-10-16T01:15:08;22.58;;;16.15;;
40781;SDS011;26493;51.938;7.626;2022-10-16T01:17:48;21.48;;;15.57;;
40781;SDS011;26493;51.938;7.626;2022-10-16T01:22:59;21.10;;;15.23;;
40781;SDS011;26493;51.938;7.626;2022-10-16T01:25:31;20.98;;;16.23;;
40781;SDS011;26493;51.938;7.626;2022-10-16T01:28:00;22.70;;;15.52;;
40781;SDS011;26493;51.938;7.626;2022-10-16T01:30:29;22.13;;;15.25;;
40781;SDS011;26493;51.938;7.626;2022-10-16T01:35:26;23.17;;;14.73;;
40781;SDS011;26493;51.938;7.626;2022-10-16T01:37:54;20.75;;;15.07;;
40781;SDS011;26493;51.938;7.626;2022-10-16T01:40:23;26.95;;;15.23;;
40781;SDS011;26493;51.938;7.626;2022-10-16T01:43:02;21.02;;;15.63;;
40781;SDS011;26493;51.938;7.626;2022-10-16T01:45:29;24.50;;;15.48;;
40781;SDS011;26493;51.938;7.626;2022-10-16T01:47:57;22.50;;;14.65;;
40781;SDS011;26493;51.938;7.626;2022-10-16T01:50:23;23.88;;;15.07;;
40781;SDS011;26493;51.938;7.626;2022-10-16T01:52:51;23.42;;;14.82;;
40781;SDS011;26493;51.938;7.626;2022-10-16T01:55:22;26.65;;;16.52;;
40781;SDS011;26493;51.938;7.626;2022-10-16T01:57:48;21.52;;;15.82;;
40781;SDS011;26493;51.938;7.626;2022-10-16T02:00:15;21.95;;;16.73;;
40781;SDS011;26493;51.938;7.626;2022-10-16T02:02:43;21.52;;;14.40;;
40781;SDS011;26493;51.938;7.626;2022-10-16T02:07:36;20.30;;;14.05;;
40781;SDS011;26493;51.938;7.626;2022-10-16T02:10:02;21.55;;;14.80;;
40781;SDS011;26493;51.938;7.626;2022-10-16T02:12:30;22.60;;;14.38;;
40781;SDS011;26493;51.938;7.626;2022-10-16T02:14:57;20.42;;;15.02;;
40781;SDS011;26493;51.938;7.626;2022-10-16T02:17:23;22.73;;;14.98;;
40781;SDS011;26493;51.938;7.626;2022-10-16T02:19:50;22.20;;;15.40;;
40781;SDS011;26493;51.938;7.626;2022-10-16T02:22:39;23.90;;;16.50;;
40781;SDS011;26493;51.938;7.626;2022-10-16T02:28:35;21.02;;;14.93;;
40781;SDS011;26493;51.938;7.626;2022-10-16T02:30:43;22.83;;;16.15;;
40781;SDS011;26493;51.938;7.626;2022-10-16T02:33:11;19.23;;;14.70;;
40781;SDS011;26493;51.938;7.626;2022-10-16T02:35:38;24.15;;;15.68;;
40781;SDS011;26493;51.938;7.626;2022-10-16T02:38:04;20.23;;;15.15;;
40781;SDS011;26493;51.938;7.626;2022-10-16T02:40:31;19.98;;;14.18;;
40781;SDS011;26493;51.938;7.626;2022-10-16T02:42:57;20.00;;;14.65;;
40781;SDS011;26493;51.938;7.626;2022-10-16T02:45:24;19.27;;;14.45;;
40781;SDS011;26493;51.938;7.626;2022-10-16T02:47:50;20.00;;;14.95;;
40781;SDS011;26493;51.938;7.626;2022-10-16T02:50:16;20.48;;;14.85;;
40781;SDS011;26493;51.938;7.626;2022-10-16T02:52:43;21.02;;;14.80;;
40781;SDS011;26493;51.938;7.626;2022-10-16T02:55:09;23.73;;;14.15;;
40781;SDS011;26493;51.938;7.626;2022-10-16T02:57:34;22.63;;;15.13;;
40781;SDS011;26493;51.938;7.626;2022-10-16T03:00:02;22.80;;;14.70;;
40781;SDS011;26493;51.938;7.626;2022-10-16T03:02:28;19.60;;;14.98;;
40781;SDS011;26493;51.938;7.626;2022-10-16T03:04:54;20.83;;;14.63;;
40781;SDS011;26493;51.938;7.626;2022-10-16T03:07:20;20.08;;;14.40;;
40781;SDS011;26493;51.938;7.626;2022-10-16T03:09:46;20.48;;;14.95;;
40781;SDS011;26493;51.938;7.626;2022-10-16T03:12:12;19.75;;;14.45;;
40781;SDS011;26493;51.938;7.626;2022-10-16T03:14:38;20.55;;;15.25;;
40781;SDS011;26493;51.938;7.626;2022-10-16T03:17:05;18.30;;;13.55;;
40781;SDS011;26493;51.938;7.626;2022-10-16T03:19:31;18.42;;;13.60;;
40781;SDS011;26493;51.938;7.626;2022-10-16T03:21:57;20.25;;;14.38;;
40781;SDS011;26493;51.938;7.626;2022-10-16T03:24:23;20.90;;;13.65;;
40781;SDS011;26493;51.938;7.626;2022-10-16T03:26:49;20.83;;;14.88;;
40781;SDS011;26493;51.938;7.626;2022-10-16T03:29:15;19.77;;;13.57;;
40781;SDS011;26493;51.938;7.626;2022-10-16T03:31:41;20.98;;;14.27;;
40781;SDS011;26493;51.938;7.626;2022-10-16T03:34:07;20.23;;;14.10;;
40781;SDS011;26493;51.938;7.626;2022-10-16T03:36:33;18.52;;;13.90;;
40781;SDS011;26493;51.938;7.626;2022-10-16T03:38:59;23.35;;;14.20;;
40781;SDS011;26493;51.938;7.626;2022-10-16T03:41:25;19.60;;;14.85;;
40781;SDS011;26493;51.938;7.626;2022-10-16T03:43:51;20.33;;;14.40;;
40781;SDS011;26493;51.938;7.626;2022-10-16T03:46:17;20.02;;;14.63;;
40781;SDS011;26493;51.938;7.626;2022-10-16T03:48:43;24.77;;;15.15;;
40781;SDS011;26493;51.938;7.626;2022-10-16T03:51:09;21.15;;;15.25;;
40781;SDS011;26493;51.938;7.626;2022-10-16T03:53:35;20.08;;;14.57;;
40781;SDS011;26493;51.938;7.626;2022-10-16T03:56:01;24.17;;;15.25;;
40781;SDS011;26493;51.938;7.626;2022-10-16T03:58:27;21.95;;;14.70;;
40781;SDS011;26493;51.938;7.626;2022-10-16T04:00:53;20.33;;;14.48;;
40781;SDS011;26493;51.938;7.626;2022-10-16T04:03:19;19.95;;;14.13;;
40781;SDS011;26493;51.938;7.626;2022-10-16T04:05:46;20.88;;;15.52;;
40781;SDS011;26493;51.938;7.626;2022-10-16T04:08:12;20.13;;;14.80;;
40781;SDS011;26493;51.938;7.626;2022-10-16T04:10:38;19.85;;;14.50;;
40781;SDS011;26493;51.938;7.626;2022-10-16T04:13:04;22.08;;;15.15;;
40781;SDS011;26493;51.938;7.626;2022-10-16T04:15:30;22.08;;;16.00;;
40781;SDS011;26493;51.938;7.626;2022-10-16T04:17:56;22.50;;;15.10;;
40781;SDS011;26493;51.938;7.626;2022-10-16T04:20:22;19.77;;;14.68;;
40781;SDS011;26493;51.938;7.626;2022-10-16T04:22:48;21.15;;;14.70;;
40781;SDS011;26493;51.938;7.626;2022-10-16T04:25:14;21.30;;;15.18;;
40781;SDS011;26493;51.938;7.626;2022-10-16T04:27:40;23.33;;;14.20;;
40781;SDS011;26493;51.938;7.626;2022-10-16T04:30:06;19.00;;;13.77;;
40781;SDS011;26493;51.938;7.626;2022-10-16T04:32:32;19.23;;;13.38;;
40781;SDS011;26493;51.938;7.626;2022-10-16T04:34:58;19.45;;;13.32;;
40781;SDS011;26493;51.938;7.626;2022-10-16T04:37:25;18.50;;;13.57;;
40781;SDS011;26493;51.938;7.626;2022-10-16T04:39:51;18.83;;;13.38;;
40781;SDS011;26493;51.938;7.626;2022-10-16T04:42:17;20.05;;;14.20;;
40781;SDS011;26493;51.938;7.626;2022-10-16T04:44:43;20.90;;;13.75;;
40781;SDS011;26493;51.938;7.626;2022-10-16T04:47:09;20.55;;;13.18;;
40781;SDS011;26493;51.938;7.626;2022-10-16T04:49:35;18.15;;;12.95;;
40781;SDS011;26493;51.938;7.626;2022-10-16T04:52:01;20.60;;;13.82;;
40781;SDS011;26493;51.938;7.626;2022-10-16T04:54:27;18.88;;;12.48;;
40781;SDS011;26493;51.938;7.626;2022-10-16T04:56:53;20.80;;;13.02;;
40781;SDS011;26493;51.938;7.626;2022-10-16T04:59:20;19.08;;;12.23;;
40781;SDS011;26493;51.938;7.626;2022-10-16T05:01:47;18.25;;;12.00;;
40781;SDS011;26493;51.938;7.626;2022-10-16T05:04:13;21.25;;;13.13;;
40781;SDS011;26493;51.938;7.626;2022-10-16T05:06:40;18.15;;;11.93;;
40781;SDS011;26493;51.938;7.626;2022-10-16T05:09:06;18.13;;;11.50;;
40781;SDS011;26493;51.938;7.626;2022-10-16T05:11:33;20.02;;;12.25;;
40781;SDS011;26493;51.938;7.626;2022-10-16T05:13:59;16.60;;;11.80;;
40781;SDS011;26493;51.938;7.626;2022-10-16T05:16:25;18.05;;;11.52;;
40781;SDS011;26493;51.938;7.626;2022-10-16T05:18:52;18.80;;;11.65;;
40781;SDS011;26493;51.938;7.626;2022-10-16T05:21:18;17.42;;;11.75;;
40781;SDS011;26493;51.938;7.626;2022-10-16T05:23:44;16.70;;;11.15;;
40781;SDS011;26493;51.938;7.626;2022-10-16T05:26:10;20.10;;;11.82;;
40781;SDS011;26493;51.938;7.626;2022-10-16T05:28:36;20.70;;;12.32;;
40781;SDS011;26493;51.938;7.626;2022-10-16T05:31:05;17.55;;;11.30;;
40781;SDS011;26493;51.938;7.626;2022-10-16T05:33:31;17.48;;;11.57;;
40781;SDS011;26493;51.938;7.626;2022-10-16T05:36:00;16.52;;;10.82;;
40781;SDS011;26493;51.938;7.626;2022-10-16T05:38:27;16.98;;;11.43;;
40781;SDS011;26493;51.938;7.626;2022-10-16T05:40:53;16.65;;;11.35;;
40781;SDS011;26493;51.938;7.626;2022-10-16T05:43:19;17.73;;;12.15;;
40781;SDS011;26493;51.938;7.626;2022-10-16T05:48:21;18.75;;;12.70;;
40781;SDS011;26493;51.938;7.626;2022-10-16T05:50:48;16.65;;;11.48;;
40781;SDS011;26493;51.938;7.626;2022-10-16T05:53:14;17.52;;;11.43;;
40781;SDS011;26493;51.938;7.626;2022-10-16T05:55:40;16.52;;;10.88;;
40781;SDS011;26493;51.938;7.626;2022-10-16T05:58:06;16.88;;;11.20;;
40781;SDS011;26493;51.938;7.626;2022-10-16T06:00:32;16.75;;;11.65;;
40781;SDS011;26493;51.938;7.626;2022-10-16T06:02:58;15.70;;;10.60;;
40781;SDS011;26493;51.938;7.626;2022-10-16T06:05:24;16.60;;;10.60;;
40781;SDS011;26493;51.938;7.626;2022-10-16T06:07:50;17.55;;;10.75;;
40781;SDS011;26493;51.938;7.626;2022-10-16T06:10:16;16.20;;;9.82;;
40781;SDS011;26493;51.938;7.626;2022-10-16T06:12:42;16.08;;;9.85;;
40781;SDS011;26493;51.938;7.626;2022-10-16T06:15:08;15.05;;;9.88;;
40781;SDS011;26493;51.938;7.626;2022-10-16T06:17:34;17.23;;;10.13;;
40781;SDS011;26493;51.938;7.626;2022-10-16T06:20:00;15.30;;;10.00;;
40781;SDS011;26493;51.938;7.626;2022-10-16T06:22:26;15.57;;;10.20;;
40781;SDS011;26493;51.938;7.626;2022-10-16T06:24:52;15.60;;;10.25;;
40781;SDS011;26493;51.938;7.626;2022-10-16T06:27:18;15.55;;;9.60;;
40781;SDS011;26493;51.938;7.626;2022-10-16T06:29:44;16.00;;;9.77;;
40781;SDS011;26493;51.938;7.626;2022-10-16T06:32:10;14.80;;;9.65;;
40781;SDS011;26493;51.938;7.626;2022-10-16T06:34:36;15.90;;;9.32;;
40781;SDS011;26493;51.938;7.626;2022-10-16T06:37:04;14.88;;;9.70;;
40781;SDS011;26493;51.938;7.626;2022-10-16T06:39:30;15.40;;;9.23;;
40781;SDS011;26493;51.938;7.626;2022-10-16T06:41:57;15.88;;;10.57;;
40781;SDS011;26493;51.938;7.626;2022-10-16T06:44:23;17.67;;;9.77;;
40781;SDS011;26493;51.938;7.626;2022-10-16T06:46:49;16.67;;;9.27;;
40781;SDS011;26493;51.938;7.626;2022-10-16T06:49:15;15.43;;;8.80;;
40781;SDS011;26493;51.938;7.626;2022-10-16T06:51:46;15.35;;;8.93;;
40781;SDS011;26493;51.938;7.626;2022-10-16T06:54:12;16.25;;;10.05;;
40781;SDS011;26493;51.938;7.626;2022-10-16T06:56:38;15.20;;;9.52;;
40781;SDS011;26493;51.938;7.626;2022-10-16T06:59:04;15.27;;;9.48;;
40781;SDS011;26493;51.938;7.626;2022-10-16T07:01:30;15.05;;;9.05;;
40781;SDS011;26493;51.938;7.626;2022-10-16T07:03:56;17.55;;;9.13;;
40781;SDS011;26493;51.938;7.626;2022-10-16T07:06:23;15.60;;;8.85;;
40781;SDS011;26493;51.938;7.626;2022-10-16T07:08:49;16.05;;;8.90;;
40781;SDS011;26493;51.938;7.626;2022-10-16T07:11:16;14.88;;;8.93;;
40781;SDS011;26493;51.938;7.626;2022-10-16T07:13:43;17.27;;;9.18;;
40781;SDS011;26493;51.938;7.626;2022-10-16T07:16:19;14.35;;;7.90;;
40781;SDS011;26493;51.938;7.626;2022-10-16T07:18:46;15.25;;;8.80;;
40781;SDS011;26493;51.938;7.626;2022-10-16T07:21:15;15.85;;;8.32;;
40781;SDS011;26493;51.938;7.626;2022-10-16T07:23:41;15.52;;;8.70;;
40781;SDS011;26493;51.938;7.626;2022-10-16T07:26:07;14.88;;;9.13;;
40781;SDS011;26493;51.938;7.626;2022-10-16T07:28:34;15.88;;;8.75;;
40781;SDS011;26493;51.938;7.626;2022-10-16T07:31:04;14.52;;;8.63;;
40781;SDS011;26493;51.938;7.626;2022-10-16T07:33:31;15.52;;;9.00;;
40781;SDS011;26493;51.938;7.626;2022-10-16T07:35:57;17.45;;;8.02;;
40781;SDS011;26493;51.938;7.626;2022-10-16T07:38:23;14.88;;;8.13;;
40781;SDS011;26493;51.938;7.626;2022-10-16T07:40:55;15.35;;;8.77;;
40781;SDS011;26493;51.938;7.626;2022-10-16T07:43:21;15.25;;;8.18;;
40781;SDS011;26493;51.938;7.626;2022-10-16T07:45:48;15.50;;;9.15;;
40781;SDS011;26493;51.938;7.626;2022-10-16T07:48:14;15.27;;;8.30;;
40781;SDS011;26493;51.938;7.626;2022-10-16T07:50:41;16.70;;;9.45;;
40781;SDS011;26493;51.938;7.626;2022-10-16T07:53:07;15.93;;;9.05;;
40781;SDS011;26493;51.938;7.626;2022-10-16T07:55:33;15.35;;;8.00;;
40781;SDS011;26493;51.938;7.626;2022-10-16T07:57:59;17.27;;;9.30;;
40781;SDS011;26493;51.938;7.626;2022-10-16T08:00:25;15.20;;;8.10;;
40781;SDS011;26493;51.938;7.626;2022-10-16T08:02:51;14.77;;;8.07;;
40781;SDS011;26493;51.938;7.626;2022-10-16T08:05:17;14.70;;;8.20;;
40781;SDS011;26493;51.938;7.626;2022-10-16T08:07:48;14.82;;;7.97;;
40781;SDS011;26493;51.938;7.626;2022-10-16T08:10:18;16.05;;;7.72;;
40781;SDS011;26493;51.938;7.626;2022-10-16T08:12:44;14.75;;;8.20;;
40781;SDS011;26493;51.938;7.626;2022-10-16T08:15:10;15.18;;;7.63;;
40781;SDS011;26493;51.938;7.626;2022-10-16T08:17:36;14.80;;;7.85;;
40781;SDS011;26493;51.938;7.626;2022-10-16T08:20:03;15.23;;;8.02;;
40781;SDS011;26493;51.938;7.626;2022-10-16T08:22:29;15.63;;;8.20;;
40781;SDS011;26493;51.938;7.626;2022-10-16T08:24:55;14.70;;;8.13;;
40781;SDS011;26493;51.938;7.626;2022-10-16T08:27:21;16.88;;;8.48;;
40781;SDS011;26493;51.938;7.626;2022-10-16T08:29:48;17.50;;;8.88;;
40781;SDS011;26493;51.938;7.626;2022-10-16T08:32:14;16.73;;;10.40;;
40781;SDS011;26493;51.938;7.626;2022-10-16T08:34:40;17.83;;;8.02;;
40781;SDS011;26493;51.938;7.626;2022-10-16T08:37:06;16.40;;;8.00;;
40781;SDS011;26493;51.938;7.626;2022-10-16T08:39:36;13.90;;;6.50;;
40781;SDS011;26493;51.938;7.626;2022-10-16T08:45:06;14.02;;;7.28;;
40781;SDS011;26493;51.938;7.626;2022-10-16T08:50:01;16.17;;;7.30;;
40781;SDS011;26493;51.938;7.626;2022-10-16T08:52:29;15.85;;;8.20;;
40781;SDS011;26493;51.938;7.626;2022-10-16T08:54:56;18.63;;;8.05;;
40781;SDS011;26493;51.938;7.626;2022-10-16T08:57:23;17.52;;;8.02;;
40781;SDS011;26493;51.938;7.626;2022-10-16T08:59:53;16.05;;;7.32;;
40781;SDS011;26493;51.938;7.626;2022-10-16T09:04:56;17.08;;;7.75;;
40781;SDS011;26493;51.938;7.626;2022-10-16T09:07:27;15.82;;;7.60;;
40781;SDS011;26493;51.938;7.626;2022-10-16T09:22:53;15.00;;;6.68;;
40781;SDS011;26493;51.938;7.626;2022-10-16T09:25:21;15.20;;;7.25;;
40781;SDS011;26493;51.938;7.626;2022-10-16T09:27:47;14.05;;;7.03;;
40781;SDS011;26493;51.938;7.626;2022-10-16T09:30:18;14.30;;;6.80;;
40781;SDS011;26493;51.938;7.626;2022-10-16T09:32:46;15.32;;;6.80;;
40781;SDS011;26493;51.938;7.626;2022-10-16T09:35:14;13.85;;;7.35;;
40781;SDS011;26493;51.938;7.626;2022-10-16T09:37:42;15.50;;;7.38;;
40781;SDS011;26493;51.938;7.626;2022-10-16T09:40:12;17.25;;;8.18;;
40781;SDS011;26493;51.938;7.626;2022-10-16T09:42:38;23.95;;;7.50;;
40781;SDS011;26493;51.938;7.626;2022-10-16T09:45:04;15.63;;;7.80;;
40781;SDS011;26493;51.938;7.626;2022-10-16T09:47:31;19.95;;;7.90;;
40781;SDS011;26493;51.938;7.626;2022-10-16T09:49:58;17.00;;;8.05;;
40781;SDS011;26493;51.938;7.626;2022-10-16T09:52:27;14.98;;;7.47;;
40781;SDS011;26493;51.938;7.626;2022-10-16T09:54:58;14.90;;;7.57;;
40781;SDS011;26493;51.938;7.626;2022-10-16T09:57:25;14.57;;;7.35;;
40781;SDS011;26493;51.938;7.626;2022-10-16T09:59:52;16.48;;;7.47;;
40781;SDS011;26493;51.938;7.626;2022-10-16T10:02:20;17.73;;;7.53;;
40781;SDS011;26493;51.938;7.626;2022-10-16T10:04:52;15.52;;;8.07;;
40781;SDS011;26493;51.938;7.626;2022-10-16T10:07:25;16.75;;;7.93;;
40781;SDS011;26493;51.938;7.626;2022-10-16T10:09:52;19.65;;;8.00;;
40781;SDS011;26493;51.938;7.626;2022-10-16T10:12:19;17.27;;;8.15;;
40781;SDS011;26493;51.938;7.626;2022-10-16T10:14:50;15.40;;;7.80;;
40781;SDS011;26493;51.938;7.626;2022-10-16T10:20:29;16.08;;;8.98;;
40781;SDS011;26493;51.938;7.626;2022-10-16T10:32:41;15.50;;;7.90;;
40781;SDS011;26493;51.938;7.626;2022-10-16T10:35:36;16.35;;;7.97;;
40781;SDS011;26493;51.938;7.626;2022-10-16T10:45:26;16.67;;;7.38;;
40781;SDS011;26493;51.938;7.626;2022-10-16T11:01:11;15.95;;;6.82;;
40781;SDS011;26493;51.938;7.626;2022-10-16T11:06:20;16.45;;;7.55;;
40781;SDS011;26493;51.938;7.626;2022-10-16T11:09:31;14.77;;;7.82;;
40781;SDS011;26493;51.938;7.626;2022-10-16T11:11:40;15.50;;;7.13;;
40781;SDS011;26493;51.938;7.626;2022-10-16T11:14:14;14.52;;;7.80;;
40781;SDS011;26493;51.938;7.626;2022-10-16T11:17:44;14.10;;;7.90;;
40781;SDS011;26493;51.938;7.626;2022-10-16T11:22:20;15.82;;;8.02;;
40781;SDS011;26493;51.938;7.626;2022-10-16T11:24:50;13.93;;;7.70;;
40781;SDS011;26493;51.938;7.626;2022-10-16T11:29:45;15.77;;;7.93;;
40781;SDS011;26493;51.938;7.626;2022-10-16T11:32:34;15.88;;;8.30;;
40781;SDS011;26493;51.938;7.626;2022-10-16T11:35:07;14.32;;;7.82;;
40781;SDS011;26493;51.938;7.626;2022-10-16T11:37:38;14.85;;;8.75;;
40781;SDS011;26493;51.938;7.626;2022-10-16T11:42:37;14.45;;;8.30;;
40781;SDS011;26493;51.938;7.626;2022-10-16T11:45:13;14.48;;;8.20;;
40781;SDS011;26493;51.938;7.626;2022-10-16T11:47:51;15.43;;;9.40;;
40781;SDS011;26493;51.938;7.626;2022-10-16T11:50:22;15.13;;;8.80;;
40781;SDS011;26493;51.938;7.626;2022-10-16T11:55:44;15.55;;;8.80;;
40781;SDS011;26493;51.938;7.626;2022-10-16T11:58:22;16.17;;;8.85;;
40781;SDS011;26493;51.938;7.626;2022-10-16T12:00:58;16.08;;;8.65;;
40781;SDS011;26493;51.938;7.626;2022-10-16T12:03:30;15.48;;;8.65;;
40781;SDS011;26493;51.938;7.626;2022-10-16T12:08:24;15.05;;;8.65;;
40781;SDS011;26493;51.938;7.626;2022-10-16T12:10:50;14.30;;;8.60;;
40781;SDS011;26493;51.938;7.626;2022-10-16T12:18:43;16.15;;;9.32;;
40781;SDS011;26493;51.938;7.626;2022-10-16T12:21:09;14.90;;;8.80;;
40781;SDS011;26493;51.938;7.626;2022-10-16T12:23:45;14.80;;;8.77;;
40781;SDS011;26493;51.938;7.626;2022-10-16T12:26:12;15.35;;;9.05;;
40781;SDS011;26493;51.938;7.626;2022-10-16T12:28:38;15.60;;;8.93;;
40781;SDS011;26493;51.938;7.626;2022-10-16T12:31:06;15.73;;;9.15;;
40781;SDS011;26493;51.938;7.626;2022-10-16T12:36:00;15.02;;;8.50;;
40781;SDS011;26493;51.938;7.626;2022-10-16T12:38:30;17.50;;;9.20;;
40781;SDS011;26493;51.938;7.626;2022-10-16T12:41:05;14.75;;;8.50;;
40781;SDS011;26493;51.938;7.626;2022-10-16T12:43:43;15.63;;;8.73;;
40781;SDS011;26493;51.938;7.626;2022-10-16T12:48:39;15.95;;;8.35;;
40781;SDS011;26493;51.938;7.626;2022-10-16T12:53:37;18.58;;;8.77;;
40781;SDS011;26493;51.938;7.626;2022-10-16T12:56:08;14.35;;;8.50;;
40781;SDS011;26493;51.938;7.626;2022-10-16T12:58:38;16.90;;;8.32;;
40781;SDS011;26493;51.938;7.626;2022-10-16T13:01:22;17.98;;;8.60;;
40781;SDS011;26493;51.938;7.626;2022-10-16T13:14:42;15.80;;;8.70;;
40781;SDS011;26493;51.938;7.626;2022-10-16T13:20:03;15.18;;;8.48;;
40781;SDS011;26493;51.938;7.626;2022-10-16T13:32:44;14.65;;;8.50;;
40781;SDS011;26493;51.938;7.626;2022-10-16T13:35:24;16.53;;;8.50;;
40781;SDS011;26493;51.938;7.626;2022-10-16T13:37:50;14.90;;;9.00;;
40781;SDS011;26493;51.938;7.626;2022-10-16T13:40:21;16.48;;;9.52;;
40781;SDS011;26493;51.938;7.626;2022-10-16T13:42:47;15.80;;;9.50;;
40781;SDS011;26493;51.938;7.626;2022-10-16T13:45:20;16.38;;;9.18;;
40781;SDS011;26493;51.938;7.626;2022-10-16T13:47:46;17.00;;;9.02;;
40781;SDS011;26493;51.938;7.626;2022-10-16T13:50:13;14.90;;;8.63;;
40781;SDS011;26493;51.938;7.626;2022-10-16T13:52:40;16.33;;;8.80;;
40781;SDS011;26493;51.938;7.626;2022-10-16T13:55:10;14.10;;;8.50;;
40781;SDS011;26493;51.938;7.626;2022-10-16T13:57:36;15.82;;;9.20;;
40781;SDS011;26493;51.938;7.626;2022-10-16T14:00:02;17.88;;;8.88;;
40781;SDS011;26493;51.938;7.626;2022-10-16T14:02:30;14.43;;;8.77;;
40781;SDS011;26493;51.938;7.626;2022-10-16T14:04:59;15.18;;;8.68;;
40781;SDS011;26493;51.938;7.626;2022-10-16T14:07:30;17.35;;;9.25;;
40781;SDS011;26493;51.938;7.626;2022-10-16T14:09:58;16.45;;;9.23;;
40781;SDS011;26493;51.938;7.626;2022-10-16T14:12:26;14.65;;;8.50;;
40781;SDS011;26493;51.938;7.626;2022-10-16T14:14:53;15.70;;;9.07;;
40781;SDS011;26493;51.938;7.626;2022-10-16T14:17:22;15.02;;;8.73;;
40781;SDS011;26493;51.938;7.626;2022-10-16T14:19:49;14.40;;;8.57;;
40781;SDS011;26493;51.938;7.626;2022-10-16T14:22:58;15.77;;;8.87;;
40781;SDS011;26493;51.938;7.626;2022-10-16T14:27:56;14.60;;;8.35;;
40781;SDS011;26493;51.938;7.626;2022-10-16T14:30:26;15.05;;;8.75;;
40781;SDS011;26493;51.938;7.626;2022-10-16T14:32:56;14.90;;;8.70;;
40781;SDS011;26493;51.938;7.626;2022-10-16T14:35:24;14.68;;;8.50;;
40781;SDS011;26493;51.938;7.626;2022-10-16T14:37:51;16.60;;;10.23;;
40781;SDS011;26493;51.938;7.626;2022-10-16T14:40:20;16.27;;;7.95;;
40781;SDS011;26493;51.938;7.626;2022-10-16T14:42:48;15.27;;;8.30;;
40781;SDS011;26493;51.938;7.626;2022-10-16T14:45:21;16.67;;;8.40;;
40781;SDS011;26493;51.938;7.626;2022-10-16T14:47:52;19.27;;;8.43;;
40781;SDS011;26493;51.938;7.626;2022-10-16T14:50:19;16.15;;;9.10;;
40781;SDS011;26493;51.938;7.626;2022-10-16T14:52:45;15.57;;;8.05;;
40781;SDS011;26493;51.938;7.626;2022-10-16T14:55:11;16.80;;;9.27;;
40781;SDS011;26493;51.938;7.626;2022-10-16T14:57:37;15.20;;;7.70;;
40781;SDS011;26493;51.938;7.626;2022-10-16T15:00:09;14.40;;;8.07;;
40781;SDS011;26493;51.938;7.626;2022-10-16T15:02:38;15.27;;;8.25;;
40781;SDS011;26493;51.938;7.626;2022-10-16T15:05:23;15.95;;;8.40;;
40781;SDS011;26493;51.938;7.626;2022-10-16T15:07:51;16.83;;;8.93;;
40781;SDS011;26493;51.938;7.626;2022-10-16T15:10:18;17.05;;;9.88;;
40781;SDS011;26493;51.938;7.626;2022-10-16T15:12:45;15.27;;;8.00;;
40781;SDS011;26493;51.938;7.626;2022-10-16T15:17:43;15.82;;;8.13;;
40781;SDS011;26493;51.938;7.626;2022-10-16T15:20:09;17.92;;;10.65;;
40781;SDS011;26493;51.938;7.626;2022-10-16T15:22:35;16.83;;;8.38;;
40781;SDS011;26493;51.938;7.626;2022-10-16T15:25:01;18.30;;;9.27;;
40781;SDS011;26493;51.938;7.626;2022-10-16T15:27:27;18.08;;;9.15;;
40781;SDS011;26493;51.938;7.626;2022-10-16T15:29:54;20.60;;;11.60;;
40781;SDS011;26493;51.938;7.626;2022-10-16T15:32:20;18.70;;;9.80;;
40781;SDS011;26493;51.938;7.626;2022-10-16T15:34:46;14.25;;;7.68;;
40781;SDS011;26493;51.938;7.626;2022-10-16T15:37:12;16.08;;;7.55;;
40781;SDS011;26493;51.938;7.626;2022-10-16T15:39:38;14.02;;;7.28;;
40781;SDS011;26493;51.938;7.626;2022-10-16T15:42:04;17.08;;;8.60;;
40781;SDS011;26493;51.938;7.626;2022-10-16T15:44:31;17.92;;;8.95;;
40781;SDS011;26493;51.938;7.626;2022-10-16T15:46:57;16.60;;;8.38;;
40781;SDS011;26493;51.938;7.626;2022-10-16T15:49:23;15.65;;;8.55;;
40781;SDS011;26493;51.938;7.626;2022-10-16T15:51:49;16.40;;;8.60;;
40781;SDS011;26493;51.938;7.626;2022-10-16T15:54:18;18.38;;;9.30;;
40781;SDS011;26493;51.938;7.626;2022-10-16T15:56:47;17.40;;;9.05;;
40781;SDS011;26493;51.938;7.626;2022-10-16T15:59:13;21.60;;;9.50;;
40781;SDS011;26493;51.938;7.626;2022-10-16T16:01:40;16.75;;;8.80;;
40781;SDS011;26493;51.938;7.626;2022-10-16T16:04:06;19.90;;;11.52;;
40781;SDS011;26493;51.938;7.626;2022-10-16T16:06:32;18.40;;;11.80;;
40781;SDS011;26493;51.938;7.626;2022-10-16T16:08:59;18.15;;;9.85;;
40781;SDS011;26493;51.938;7.626;2022-10-16T16:11:25;18.63;;;10.75;;
40781;SDS011;26493;51.938;7.626;2022-10-16T16:13:51;16.48;;;9.20;;
40781;SDS011;26493;51.938;7.626;2022-10-16T16:16:19;18.13;;;9.68;;
40781;SDS011;26493;51.938;7.626;2022-10-16T16:18:45;29.13;;;17.65;;
40781;SDS011;26493;51.938;7.626;2022-10-16T16:21:13;20.63;;;10.07;;
40781;SDS011;26493;51.938;7.626;2022-10-16T16:23:39;16.88;;;9.18;;
40781;SDS011;26493;51.938;7.626;2022-10-16T16:28:57;18.02;;;10.35;;
40781;SDS011;26493;51.938;7.626;2022-10-16T16:31:24;20.27;;;12.63;;
40781;SDS011;26493;51.938;7.626;2022-10-16T16:33:50;18.13;;;9.10;;
40781;SDS011;26493;51.938;7.626;2022-10-16T16:36:16;16.90;;;9.77;;
40781;SDS011;26493;51.938;7.626;2022-10-16T16:38:43;19.83;;;10.18;;
40781;SDS011;26493;51.938;7.626;2022-10-16T16:41:13;17.95;;;8.95;;
40781;SDS011;26493;51.938;7.626;2022-10-16T16:43:39;27.25;;;15.77;;
40781;SDS011;26493;51.938;7.626;2022-10-16T16:46:05;24.13;;;16.35;;
40781;SDS011;26493;51.938;7.626;2022-10-16T16:48:31;37.75;;;27.52;;